createdAt,value
2023-02-16T00:00:30.514Z,23.48
2023-02-16T00:02:58.029Z,23.45
2023-02-16T00:05:28.234Z,20.48
2023-02-16T00:07:56.938Z,24.00
2023-02-16T00:10:25.495Z,20.83
2023-02-16T00:13:12.129Z,21.10
2023-02-16T00:15:39.852Z,22.10
2023-02-16T00:18:22.025Z,25.25
2023-02-16T00:20:49.727Z,22.55
2023-02-16T00:23:17.114Z,21.77
2023-02-16T00:25:44.245Z,20.30
2023-02-16T00:28:19.715Z,20.92
2023-02-16T00:30:47.386Z,25.58
2023-02-16T00:33:16.652Z,24.52
2023-02-16T00:35:44.765Z,24.30
2023-02-16T00:38:12.518Z,20.25
2023-02-16T00:40:40.583Z,21.10
2023-02-16T00:43:08.026Z,21.55
2023-02-16T00:45:38.168Z,25.63
2023-02-16T00:48:05.319Z,22.52
2023-02-16T00:50:34.626Z,24.35
2023-02-16T00:53:02.995Z,22.80
2023-02-16T00:55:34.071Z,27.63
2023-02-16T00:58:16.104Z,19.55
2023-02-16T01:00:47.710Z,24.50
2023-02-16T01:03:24.563Z,23.58
2023-02-16T01:06:12.221Z,20.63
2023-02-16T01:08:57.690Z,24.33
2023-02-16T01:11:26.839Z,21.27
2023-02-16T01:13:55.336Z,27.23
2023-02-16T01:16:25.192Z,21.25
2023-02-16T01:18:53.093Z,23.23
2023-02-16T01:21:22.085Z,23.55
2023-02-16T01:23:49.194Z,24.25
2023-02-16T01:26:18.681Z,21.23
2023-02-16T01:28:45.894Z,27.63
2023-02-16T01:31:14.856Z,20.80
2023-02-16T01:33:42.810Z,21.10
2023-02-16T01:36:20.297Z,19.95
2023-02-16T01:38:47.692Z,18.15
2023-02-16T01:41:27.465Z,20.73
2023-02-16T01:44:05.978Z,24.15
2023-02-16T01:46:44.663Z,18.92
2023-02-16T01:49:17.485Z,22.30
2023-02-16T01:52:02.718Z,24.52
2023-02-16T01:54:53.107Z,23.90
2023-02-16T01:57:38.125Z,22.35
2023-02-16T02:00:08.464Z,18.58
2023-02-16T02:02:39.582Z,21.15
2023-02-16T02:05:36.788Z,22.55
2023-02-16T02:08:11.527Z,21.48
2023-02-16T02:10:56.256Z,18.90
2023-02-16T02:13:31.706Z,23.63
2023-02-16T02:16:00.302Z,23.65
2023-02-16T02:18:27.352Z,18.75
2023-02-16T02:21:38.374Z,17.63
2023-02-16T02:24:20.348Z,18.95
2023-02-16T02:27:09.333Z,21.45
2023-02-16T02:30:01.300Z,19.02
2023-02-16T02:32:43.428Z,18.60
2023-02-16T02:35:34.589Z,18.02
2023-02-16T02:38:20.195Z,20.15
2023-02-16T02:41:02.423Z,18.08
2023-02-16T02:43:46.238Z,15.45
2023-02-16T02:46:32.166Z,18.58
2023-02-16T02:48:59.625Z,16.60
2023-02-16T02:51:29.408Z,19.42
2023-02-16T02:54:28.696Z,14.52
2023-02-16T02:57:22.506Z,13.45
2023-02-16T03:00:16.131Z,10.95
2023-02-16T03:02:46.086Z,10.48
2023-02-16T03:05:15.351Z,15.43
2023-02-16T03:07:47.691Z,12.57
2023-02-16T03:10:41.587Z,14.90
2023-02-16T03:13:14.053Z,15.77
2023-02-16T03:15:42.322Z,15.30
2023-02-16T03:18:31.257Z,16.10
2023-02-16T03:21:17.942Z,16.25
2023-02-16T03:24:05.495Z,14.35
2023-02-16T03:26:52.347Z,14.27
2023-02-16T03:29:24.768Z,15.23
2023-02-16T03:31:54.258Z,14.27
2023-02-16T03:34:22.568Z,17.73
2023-02-16T03:36:55.040Z,18.38
2023-02-16T03:39:22.055Z,15.77
2023-02-16T03:41:54.546Z,15.07
2023-02-16T03:44:22.086Z,18.70
2023-02-16T03:46:49.670Z,15.77
2023-02-16T03:49:20.699Z,19.27
2023-02-16T03:51:48.029Z,16.83
2023-02-16T03:54:15.126Z,15.40
2023-02-16T03:56:42.147Z,14.68
2023-02-16T03:59:09.180Z,19.02
2023-02-16T04:01:36.176Z,14.80
2023-02-16T04:04:03.294Z,22.25
2023-02-16T04:06:30.475Z,18.48
2023-02-16T04:08:57.560Z,16.05
2023-02-16T04:11:42.754Z,18.85
2023-02-16T04:14:09.709Z,17.00
2023-02-16T04:16:36.816Z,14.60
2023-02-16T04:19:03.781Z,25.38
2023-02-16T04:21:30.910Z,19.25
2023-02-16T04:23:57.805Z,19.42
2023-02-16T04:26:24.784Z,19.52
2023-02-16T04:28:51.790Z,25.40
2023-02-16T04:31:18.843Z,19.85
2023-02-16T04:33:45.811Z,20.95
2023-02-16T04:36:12.889Z,21.85
2023-02-16T04:38:39.931Z,23.25
2023-02-16T04:41:06.946Z,21.20
2023-02-16T04:43:34.528Z,21.30
2023-02-16T04:46:01.639Z,23.40
2023-02-16T04:48:28.848Z,22.73
2023-02-16T04:50:55.949Z,23.17
2023-02-16T04:53:22.926Z,19.52
2023-02-16T04:55:50.425Z,20.20
2023-02-16T04:58:17.642Z,29.42
2023-02-16T05:00:44.760Z,20.92
2023-02-16T05:03:11.863Z,26.15
2023-02-16T05:05:39.204Z,23.23
2023-02-16T05:08:06.171Z,25.30
2023-02-16T05:10:33.147Z,29.55
2023-02-16T05:13:18.647Z,26.58
2023-02-16T05:15:45.680Z,20.92
2023-02-16T05:18:12.817Z,21.45
2023-02-16T05:20:58.790Z,22.20
2023-02-16T05:23:25.891Z,27.25
2023-02-16T05:25:53.123Z,23.05
2023-02-16T05:28:20.242Z,19.67
2023-02-16T05:30:47.262Z,26.45
2023-02-16T05:33:14.259Z,19.65
2023-02-16T05:35:41.292Z,21.63
2023-02-16T05:38:08.286Z,23.83
2023-02-16T05:40:35.601Z,23.67
2023-02-16T05:43:02.582Z,22.90
2023-02-16T05:45:29.953Z,26.05
2023-02-16T05:47:56.903Z,27.10
2023-02-16T05:50:23.990Z,25.95
2023-02-16T05:52:51.247Z,32.03
2023-02-16T05:55:18.524Z,22.33
2023-02-16T05:57:46.112Z,28.38
2023-02-16T06:00:17.108Z,22.80
2023-02-16T06:02:44.241Z,25.63
2023-02-16T06:05:11.230Z,22.40
2023-02-16T06:07:38.334Z,23.25
2023-02-16T06:10:05.793Z,23.77
2023-02-16T06:12:34.637Z,24.63
2023-02-16T06:15:02.204Z,25.08
2023-02-16T06:17:29.352Z,21.55
2023-02-16T06:19:56.521Z,26.65
2023-02-16T06:22:23.451Z,22.67
2023-02-16T06:24:50.401Z,24.05
2023-02-16T06:27:17.370Z,22.00
2023-02-16T06:29:44.426Z,24.05
2023-02-16T06:32:11.568Z,33.58
2023-02-16T06:34:38.716Z,25.35
2023-02-16T06:37:05.728Z,27.63
2023-02-16T06:39:32.705Z,29.60
2023-02-16T06:41:59.971Z,26.90
2023-02-16T06:44:26.969Z,23.42
2023-02-16T06:46:54.174Z,21.73
2023-02-16T06:49:22.084Z,28.58
2023-02-16T06:51:50.306Z,22.83
2023-02-16T06:54:17.885Z,27.95
2023-02-16T06:56:45.151Z,25.10
2023-02-16T06:59:13.354Z,28.50
2023-02-16T07:01:40.521Z,23.60
2023-02-16T07:04:07.811Z,30.33
2023-02-16T07:06:35.162Z,24.48
2023-02-16T07:09:02.800Z,26.52
2023-02-16T07:11:30.028Z,26.75
2023-02-16T07:13:57.123Z,26.20
2023-02-16T07:16:24.323Z,29.25
2023-02-16T07:18:51.671Z,30.17
2023-02-16T07:21:18.720Z,27.17
2023-02-16T07:23:45.938Z,30.05
2023-02-16T07:26:13.054Z,24.35
2023-02-16T07:28:40.172Z,27.30
2023-02-16T07:31:12.274Z,28.02
2023-02-16T07:33:40.366Z,29.88
2023-02-16T07:36:08.645Z,32.20
2023-02-16T07:38:35.690Z,27.58
2023-02-16T07:41:03.125Z,28.75
2023-02-16T07:43:30.351Z,27.92
2023-02-16T07:45:57.433Z,29.67
2023-02-16T07:48:24.597Z,30.15
2023-02-16T07:50:51.831Z,29.17
2023-02-16T07:53:18.886Z,26.88
2023-02-16T07:55:46.626Z,26.33
2023-02-16T07:58:33.688Z,27.58
2023-02-16T08:01:09.902Z,26.58
2023-02-16T08:03:37.180Z,27.35
2023-02-16T08:06:05.112Z,24.77
2023-02-16T08:08:32.487Z,27.95
2023-02-16T08:10:59.695Z,22.65
2023-02-16T08:13:26.680Z,29.75
2023-02-16T08:15:53.761Z,25.65
2023-02-16T08:18:24.022Z,25.75
2023-02-16T08:21:03.720Z,24.92
2023-02-16T08:23:32.103Z,25.48
2023-02-16T08:25:59.373Z,22.85
2023-02-16T08:28:29.055Z,26.08
2023-02-16T08:30:56.331Z,28.15
2023-02-16T08:33:23.496Z,27.02
2023-02-16T08:35:50.411Z,27.60
2023-02-16T08:38:17.521Z,26.63
2023-02-16T08:40:49.018Z,27.90
2023-02-16T08:43:16.026Z,28.33
2023-02-16T08:45:49.473Z,24.90
2023-02-16T08:48:17.944Z,26.40
2023-02-16T08:50:55.702Z,26.58
2023-02-16T08:53:23.433Z,31.08
2023-02-16T08:55:57.791Z,28.83
2023-02-16T08:58:24.859Z,28.25
2023-02-16T09:00:51.995Z,27.23
2023-02-16T09:03:19.763Z,27.83
2023-02-16T09:05:48.669Z,26.70
2023-02-16T09:08:16.104Z,29.23
2023-02-16T09:10:43.503Z,29.17
2023-02-16T09:13:15.174Z,28.77
2023-02-16T09:15:45.993Z,30.88
2023-02-16T09:18:14.292Z,30.58
2023-02-16T09:20:45.629Z,29.73
2023-02-16T09:23:14.001Z,30.23
2023-02-16T09:25:42.066Z,31.13
2023-02-16T09:28:10.888Z,29.63
2023-02-16T09:30:38.994Z,27.85
2023-02-16T09:33:06.654Z,28.13
2023-02-16T09:35:33.564Z,31.00
2023-02-16T09:38:00.820Z,25.00
2023-02-16T09:40:27.816Z,29.67
2023-02-16T09:43:13.417Z,30.38
2023-02-16T09:45:45.230Z,29.00
2023-02-16T09:48:33.025Z,28.65
2023-02-16T09:51:01.332Z,28.38
2023-02-16T09:53:39.676Z,30.30
2023-02-16T09:56:40.452Z,32.05
2023-02-16T09:59:24.824Z,28.25
2023-02-16T10:02:15.524Z,28.60
2023-02-16T10:05:04.696Z,34.25
2023-02-16T10:07:58.576Z,31.90
2023-02-16T10:10:40.879Z,30.10
2023-02-16T10:13:26.161Z,31.88
2023-02-16T10:15:56.809Z,32.00
2023-02-16T10:18:52.059Z,32.08
2023-02-16T10:21:26.221Z,37.00
2023-02-16T10:24:00.202Z,30.60
2023-02-16T10:26:46.450Z,31.23
2023-02-16T10:32:06.403Z,33.08
2023-02-16T10:34:49.225Z,35.92
2023-02-16T10:38:01.180Z,34.55
2023-02-16T10:40:51.311Z,35.70
2023-02-16T10:43:39.148Z,37.75
2023-02-16T10:46:07.237Z,37.00
2023-02-16T10:48:34.687Z,35.97
2023-02-16T10:51:06.368Z,34.35
2023-02-16T10:53:33.534Z,35.13
2023-02-16T10:56:00.873Z,35.10
2023-02-16T10:58:40.584Z,39.38
2023-02-16T11:01:20.533Z,37.85
2023-02-16T11:03:53.472Z,39.45
2023-02-16T11:06:26.937Z,39.90
2023-02-16T11:08:58.012Z,37.08
2023-02-16T11:11:30.693Z,39.53
2023-02-16T11:14:03.223Z,39.08
2023-02-16T11:16:31.109Z,37.95
2023-02-16T11:19:18.664Z,41.47
2023-02-16T11:22:03.744Z,40.72
2023-02-16T11:24:34.053Z,38.00
2023-02-16T11:27:05.426Z,40.88
2023-02-16T11:29:33.268Z,41.38
2023-02-16T11:32:07.570Z,49.83
2023-02-16T11:34:37.408Z,40.88
2023-02-16T11:37:16.521Z,44.80
2023-02-16T11:40:09.276Z,39.80
2023-02-16T11:42:40.870Z,33.85
2023-02-16T11:45:21.056Z,40.67
2023-02-16T11:47:54.784Z,35.53
2023-02-16T11:50:33.661Z,41.92
2023-02-16T11:53:12.554Z,44.65
2023-02-16T11:55:45.198Z,44.38
2023-02-16T11:58:27.598Z,41.42
2023-02-16T12:01:34.870Z,37.25
2023-02-16T12:04:29.476Z,44.40
2023-02-16T12:07:15.685Z,40.75
2023-02-16T12:12:12.357Z,42.03
2023-02-16T12:14:51.052Z,36.05
2023-02-16T12:17:56.325Z,42.20
2023-02-16T12:20:45.864Z,38.60
2023-02-16T12:23:30.929Z,36.40
2023-02-16T12:26:19.857Z,40.00
2023-02-16T12:29:08.531Z,36.58
2023-02-16T12:32:01.623Z,35.92
2023-02-16T12:34:46.049Z,43.80
2023-02-16T12:37:27.795Z,41.43
2023-02-16T12:40:04.022Z,39.17
2023-02-16T12:42:39.715Z,37.65
2023-02-16T12:45:21.602Z,38.20
2023-02-16T12:47:54.515Z,36.42
2023-02-16T12:50:33.496Z,44.97
2023-02-16T12:53:22.503Z,37.92
2023-02-16T12:55:59.050Z,38.35
2023-02-16T12:58:37.768Z,40.33
2023-02-16T13:01:12.270Z,36.88
2023-02-16T13:04:09.048Z,36.80
2023-02-16T13:09:40.746Z,39.83
2023-02-16T13:12:29.265Z,35.80
2023-02-16T13:15:25.345Z,42.63
2023-02-16T13:18:06.906Z,48.10
2023-02-16T13:20:34.031Z,42.10
2023-02-16T13:23:38.522Z,37.03
2023-02-16T13:26:23.761Z,43.67
2023-02-16T13:29:16.238Z,39.17
2023-02-16T13:32:04.649Z,41.85
2023-02-16T13:34:52.834Z,42.88
2023-02-16T13:37:31.942Z,42.38
2023-02-16T13:40:12.223Z,43.47
2023-02-16T13:43:23.846Z,45.05
2023-02-16T13:45:54.682Z,46.95
2023-02-16T13:48:28.741Z,49.55
2023-02-16T13:51:05.280Z,55.90
2023-02-16T13:53:40.515Z,41.17
2023-02-16T13:56:22.182Z,41.13
2023-02-16T13:58:51.723Z,40.20
2023-02-16T14:01:39.114Z,39.80
2023-02-16T14:04:31.395Z,44.67
2023-02-16T14:07:05.221Z,40.25
2023-02-16T14:09:37.909Z,38.55
2023-02-16T14:12:16.531Z,45.97
2023-02-16T14:14:43.370Z,49.38
2023-02-16T14:17:22.624Z,40.47
2023-02-16T14:20:15.061Z,42.60
2023-02-16T14:22:53.436Z,45.75
2023-02-16T14:25:20.747Z,42.90
2023-02-16T14:27:49.040Z,37.85
2023-02-16T14:30:39.337Z,40.55
2023-02-16T14:33:18.947Z,41.50
2023-02-16T14:36:36.033Z,41.15
2023-02-16T14:39:03.142Z,45.10
2023-02-16T14:41:35.696Z,46.35
2023-02-16T14:44:06.078Z,44.80
2023-02-16T14:46:51.107Z,44.30
2023-02-16T14:49:34.144Z,41.15
2023-02-16T14:52:10.349Z,43.53
2023-02-16T14:55:27.273Z,44.95
2023-02-16T14:58:22.251Z,37.60
2023-02-16T15:01:14.456Z,34.70
2023-02-16T15:03:46.437Z,44.65
2023-02-16T15:06:39.604Z,38.47
2023-02-16T15:09:17.600Z,42.08
2023-02-16T15:12:24.125Z,36.55
2023-02-16T15:14:52.902Z,41.75
2023-02-16T15:17:41.398Z,38.58
2023-02-16T15:20:11.415Z,43.15
2023-02-16T15:22:43.902Z,42.35
2023-02-16T15:25:32.683Z,41.30
2023-02-16T15:28:15.722Z,35.67
2023-02-16T15:30:55.554Z,34.15
2023-02-16T15:33:23.095Z,42.35
2023-02-16T15:36:01.825Z,39.60
2023-02-16T15:38:35.463Z,40.22
2023-02-16T15:41:13.730Z,35.30
2023-02-16T15:43:43.602Z,31.33
2023-02-16T15:46:42.099Z,37.80
2023-02-16T15:49:34.979Z,36.65
2023-02-16T15:52:02.376Z,30.33
2023-02-16T15:54:32.320Z,41.35
2023-02-16T15:57:01.667Z,36.75
2023-02-16T15:59:35.536Z,32.03
2023-02-16T16:02:11.824Z,44.63
2023-02-16T16:04:56.986Z,35.03
2023-02-16T16:07:35.766Z,43.05
2023-02-16T16:10:09.590Z,34.92
2023-02-16T16:12:36.748Z,36.92
2023-02-16T16:15:05.036Z,33.20
2023-02-16T16:17:34.734Z,41.83
2023-02-16T16:20:31.628Z,40.95
2023-02-16T16:23:01.968Z,40.95
2023-02-16T16:25:34.866Z,38.58
2023-02-16T16:28:07.266Z,36.03
2023-02-16T16:30:36.681Z,37.78
2023-02-16T16:33:11.973Z,39.58
2023-02-16T16:35:44.795Z,37.40
2023-02-16T16:38:27.008Z,41.15
2023-02-16T16:40:57.320Z,43.85
2023-02-16T16:43:29.525Z,45.00
2023-02-16T16:46:12.703Z,46.67
2023-02-16T16:48:47.972Z,41.80
2023-02-16T16:51:31.316Z,46.40
2023-02-16T16:54:07.014Z,44.10
2023-02-16T16:56:39.624Z,39.10
2023-02-16T16:59:07.324Z,47.70
2023-02-16T17:01:34.789Z,46.20
2023-02-16T17:04:01.724Z,48.88
2023-02-16T17:06:29.427Z,48.03
2023-02-16T17:08:56.533Z,51.45
2023-02-16T17:11:30.780Z,47.88
2023-02-16T17:14:15.609Z,45.42
2023-02-16T17:16:45.314Z,50.70
2023-02-16T17:19:17.230Z,44.92
2023-02-16T17:21:44.956Z,49.40
2023-02-16T17:24:12.751Z,44.38
2023-02-16T17:26:40.458Z,49.97
2023-02-16T17:29:07.578Z,44.65
2023-02-16T17:31:35.035Z,45.83
2023-02-16T17:34:02.001Z,45.75
2023-02-16T17:36:29.029Z,44.70
2023-02-16T17:38:56.116Z,48.58
2023-02-16T17:41:28.568Z,50.58
2023-02-16T17:43:55.536Z,52.17
2023-02-16T17:46:23.723Z,51.50
2023-02-16T17:48:54.025Z,47.05
2023-02-16T17:51:23.551Z,45.47
2023-02-16T17:53:50.883Z,38.25
2023-02-16T17:56:21.139Z,46.45
2023-02-16T17:58:48.111Z,40.28
2023-02-16T18:01:16.593Z,46.40
2023-02-16T18:03:43.601Z,43.85
2023-02-16T18:06:18.180Z,44.58
2023-02-16T18:08:45.385Z,46.58
2023-02-16T18:11:12.807Z,41.80
2023-02-16T18:13:40.019Z,45.97
2023-02-16T18:16:08.468Z,48.58
2023-02-16T18:18:36.913Z,43.85
2023-02-16T18:21:04.150Z,42.38
2023-02-16T18:23:31.336Z,38.47
2023-02-16T18:25:58.381Z,43.08
2023-02-16T18:28:27.921Z,44.35
2023-02-16T18:30:55.111Z,39.70
2023-02-16T18:33:22.218Z,48.47
2023-02-16T18:35:51.888Z,42.33
2023-02-16T18:38:21.842Z,38.58
2023-02-16T18:40:49.444Z,40.05
2023-02-16T18:43:16.701Z,41.17
2023-02-16T18:45:44.111Z,31.60
2023-02-16T18:48:12.017Z,36.17
2023-02-16T18:50:39.131Z,41.10
2023-02-16T18:53:07.517Z,36.00
2023-02-16T18:55:35.230Z,38.50
2023-02-16T18:58:07.414Z,34.90
2023-02-16T19:00:35.486Z,40.00
2023-02-16T19:03:03.159Z,41.28
2023-02-16T19:05:30.590Z,28.45
2023-02-16T19:07:57.616Z,43.70
2023-02-16T19:10:25.238Z,32.97
2023-02-16T19:12:52.455Z,35.95
2023-02-16T19:15:19.802Z,34.65
2023-02-16T19:17:46.868Z,40.40
2023-02-16T19:20:18.076Z,40.05
2023-02-16T19:22:46.646Z,31.17
2023-02-16T19:25:15.163Z,38.95
2023-02-16T19:27:42.426Z,42.17
2023-02-16T19:30:10.056Z,36.95
2023-02-16T19:32:38.706Z,37.78
2023-02-16T19:35:05.875Z,28.70
2023-02-16T19:37:32.895Z,36.10
2023-02-16T19:39:59.943Z,31.70
2023-02-16T19:42:27.077Z,28.73
2023-02-16T19:44:54.117Z,38.33
2023-02-16T19:47:21.400Z,36.80
2023-02-16T19:49:48.296Z,27.48
2023-02-16T19:52:15.553Z,26.05
2023-02-16T19:54:42.465Z,27.98
2023-02-16T19:57:09.472Z,28.17
2023-02-16T19:59:36.493Z,34.17
2023-02-16T20:02:03.894Z,24.85
2023-02-16T20:04:30.869Z,29.00
2023-02-16T20:06:58.056Z,24.63
2023-02-16T20:09:25.306Z,25.42
2023-02-16T20:11:52.571Z,23.25
2023-02-16T20:14:19.569Z,24.05
2023-02-16T20:16:46.717Z,25.38
2023-02-16T20:19:14.162Z,25.83
2023-02-16T20:21:44.162Z,25.38
2023-02-16T20:24:12.061Z,29.17
2023-02-16T20:26:44.227Z,25.75
2023-02-16T20:29:13.156Z,28.52
2023-02-16T20:31:59.305Z,27.25
2023-02-16T20:34:27.431Z,29.70
2023-02-16T20:36:54.814Z,31.17
2023-02-16T20:39:22.867Z,23.40
2023-02-16T20:41:50.157Z,30.70
2023-02-16T20:44:17.115Z,28.23
2023-02-16T20:46:44.201Z,27.90
2023-02-16T20:49:11.194Z,27.65
2023-02-16T20:51:38.392Z,32.88
2023-02-16T20:54:05.984Z,26.42
2023-02-16T20:56:33.220Z,25.45
2023-02-16T20:59:01.555Z,36.70
2023-02-16T21:01:33.964Z,27.70
2023-02-16T21:04:00.987Z,31.75
2023-02-16T21:06:28.540Z,33.95
2023-02-16T21:08:55.884Z,35.50
2023-02-16T21:11:23.426Z,34.45
2023-02-16T21:13:50.402Z,28.98
2023-02-16T21:16:17.875Z,28.55
2023-02-16T21:18:45.120Z,28.23
2023-02-16T21:21:15.806Z,26.05
2023-02-16T21:23:51.493Z,25.00
2023-02-16T21:26:20.341Z,25.98
2023-02-16T21:28:47.569Z,36.03
2023-02-16T21:31:17.910Z,34.03
2023-02-16T21:33:45.618Z,33.30
2023-02-16T21:36:17.454Z,27.15
2023-02-16T21:38:44.591Z,29.58
2023-02-16T21:41:27.557Z,26.70
2023-02-16T21:44:01.710Z,27.67
2023-02-16T21:46:33.918Z,26.77
2023-02-16T21:49:01.215Z,29.50
2023-02-16T21:51:31.429Z,27.65
2023-02-16T21:53:59.564Z,25.75
2023-02-16T21:56:49.209Z,26.23
2023-02-16T21:59:18.273Z,28.17
2023-02-16T22:01:50.999Z,30.80
2023-02-16T22:04:21.821Z,27.27
2023-02-16T22:06:50.349Z,25.70
2023-02-16T22:09:23.342Z,31.20
2023-02-16T22:11:51.385Z,22.67
2023-02-16T22:14:19.174Z,23.42
2023-02-16T22:16:47.899Z,37.45
2023-02-16T22:19:18.042Z,31.10
2023-02-16T22:21:46.353Z,31.73
2023-02-16T22:24:15.136Z,33.05
2023-02-16T22:26:42.266Z,34.85
2023-02-16T22:29:09.936Z,25.27
2023-02-16T22:31:37.385Z,29.25
2023-02-16T22:34:07.213Z,36.42
2023-02-16T22:36:35.889Z,28.33
2023-02-16T22:39:02.946Z,31.38
2023-02-16T22:41:29.899Z,29.80
2023-02-16T22:43:57.426Z,30.75
2023-02-16T22:46:24.866Z,29.67
2023-02-16T22:48:52.585Z,27.13
2023-02-16T22:51:21.605Z,31.95
2023-02-16T22:53:48.706Z,28.42
2023-02-16T22:56:18.361Z,35.30
2023-02-16T22:58:46.330Z,30.85
2023-02-16T23:01:19.030Z,24.05
2023-02-16T23:03:47.781Z,29.50
2023-02-16T23:06:20.736Z,27.25
2023-02-16T23:08:52.678Z,33.85
2023-02-16T23:11:19.786Z,29.52
2023-02-16T23:13:46.844Z,32.60
2023-02-16T23:16:16.660Z,22.48
2023-02-16T23:18:44.843Z,28.05
2023-02-16T23:21:16.497Z,24.55
2023-02-16T23:23:43.942Z,29.83
2023-02-16T23:26:11.217Z,28.55
2023-02-16T23:28:40.826Z,23.45
2023-02-16T23:31:08.614Z,21.95
2023-02-16T23:33:35.710Z,30.67
2023-02-16T23:36:03.050Z,26.38
2023-02-16T23:38:30.106Z,23.58
2023-02-16T23:41:03.639Z,29.25
2023-02-16T23:43:31.237Z,24.70
2023-02-16T23:45:58.442Z,31.40
2023-02-16T23:48:25.633Z,28.30
2023-02-16T23:50:53.688Z,26.02
2023-02-16T23:53:22.007Z,32.08
2023-02-16T23:56:07.965Z,30.05
2023-02-16T23:58:37.498Z,29.23
